createdAt,value
2023-03-23T15:58:23.477Z,29.32
2023-03-23T16:00:53.419Z,27.44
2023-03-23T16:03:27.760Z,24.95
2023-03-23T16:05:57.779Z,25.07
2023-03-23T16:08:27.613Z,24.18
2023-03-23T16:10:55.840Z,24.17
2023-03-23T16:13:24.393Z,23.61
2023-03-23T16:15:52.550Z,23.78
2023-03-23T16:18:22.993Z,23.66
2023-03-23T16:20:51.374Z,23.50
2023-03-23T16:23:19.652Z,23.49
2023-03-23T16:25:47.195Z,23.71
2023-03-23T16:28:15.556Z,23.03
2023-03-23T16:30:45.618Z,22.99
2023-03-23T16:33:13.961Z,22.86
2023-03-23T16:35:42.925Z,22.73
2023-03-23T16:38:16.415Z,22.83
2023-03-23T16:40:46.053Z,22.86
2023-03-23T16:43:14.565Z,22.70
2023-03-23T16:45:44.786Z,22.71
2023-03-23T16:48:16.059Z,22.45
2023-03-23T16:50:45.546Z,22.26
2023-03-23T16:53:13.210Z,22.11
2023-03-23T16:55:42.224Z,22.08
2023-03-23T16:58:16.884Z,21.99
2023-03-23T17:00:49.503Z,21.73
2023-03-23T17:03:19.576Z,21.66
2023-03-23T17:05:51.719Z,21.65
2023-03-23T17:08:21.117Z,21.52
2023-03-23T17:10:49.135Z,21.41
2023-03-23T17:13:18.127Z,21.63
2023-03-23T17:15:47.645Z,21.52
2023-03-23T17:18:16.634Z,21.51
2023-03-23T17:20:44.855Z,21.48
2023-03-23T17:23:13.400Z,21.33
2023-03-23T17:25:42.554Z,21.04
2023-03-23T17:28:10.694Z,20.91
2023-03-23T17:30:44.161Z,20.85
2023-03-23T17:33:12.978Z,20.79
2023-03-23T17:35:42.120Z,20.66
2023-03-23T17:38:09.999Z,20.70
2023-03-23T17:40:38.571Z,20.64
2023-03-23T17:43:07.153Z,20.52
2023-03-23T17:45:36.590Z,20.45
2023-03-23T17:48:07.918Z,20.36
2023-03-23T17:50:36.823Z,20.28
2023-03-23T17:53:04.637Z,20.13
2023-03-23T17:55:32.318Z,20.11
2023-03-23T17:58:00.792Z,19.91
2023-03-23T18:00:28.792Z,19.93
2023-03-23T18:02:57.126Z,19.91
2023-03-23T18:05:27.862Z,19.94
2023-03-23T18:07:55.876Z,19.90
2023-03-23T18:10:23.820Z,19.87
2023-03-23T18:12:52.603Z,19.73
2023-03-23T18:15:20.830Z,19.62
2023-03-23T18:17:51.192Z,19.42
2023-03-23T18:20:19.747Z,19.29
2023-03-23T18:22:49.316Z,19.24
2023-03-23T18:25:17.368Z,19.15
2023-03-23T18:27:46.381Z,19.09
2023-03-23T18:30:14.668Z,19.06
2023-03-23T18:32:42.916Z,18.96
2023-03-23T18:35:11.340Z,18.85
2023-03-23T18:37:39.750Z,18.80
2023-03-23T18:40:12.807Z,18.76
2023-03-23T18:42:45.074Z,18.66
2023-03-23T18:45:13.498Z,18.59
2023-03-23T18:47:41.700Z,18.53
2023-03-23T18:50:11.608Z,18.48
2023-03-23T18:52:40.348Z,18.47
2023-03-23T18:55:09.363Z,18.45
2023-03-23T18:57:40.320Z,18.44
2023-03-23T19:00:10.147Z,18.37
2023-03-23T19:02:39.698Z,18.48
2023-03-23T19:05:08.697Z,18.53
2023-03-23T19:07:38.497Z,18.35
2023-03-23T19:10:06.613Z,18.41
2023-03-23T19:12:34.690Z,18.31
2023-03-23T19:15:02.891Z,18.18
2023-03-23T19:17:31.166Z,18.16
2023-03-23T19:19:59.974Z,18.13
2023-03-23T19:22:28.289Z,18.08
2023-03-23T19:24:56.271Z,18.02
2023-03-23T19:27:24.489Z,18.20
2023-03-23T19:29:52.648Z,18.12
2023-03-23T19:32:21.022Z,18.05
2023-03-23T19:34:51.252Z,17.96
2023-03-23T19:37:19.299Z,18.05
2023-03-23T19:39:47.102Z,17.97
2023-03-23T19:42:18.516Z,17.87
2023-03-23T19:44:47.507Z,17.83
2023-03-23T19:47:16.451Z,17.89
2023-03-23T19:49:44.952Z,17.82
2023-03-23T19:52:14.999Z,17.65
2023-03-23T19:54:45.350Z,17.66
2023-03-23T19:57:14.296Z,17.76
2023-03-23T19:59:42.840Z,17.52
2023-03-23T20:02:13.693Z,17.72
2023-03-23T20:04:43.718Z,17.61
2023-03-23T20:07:12.874Z,17.48
2023-03-23T20:09:41.188Z,17.29
2023-03-23T20:12:09.966Z,17.23
2023-03-23T20:14:44.121Z,17.14
2023-03-23T20:17:14.580Z,16.98
2023-03-23T20:19:43.437Z,16.88
2023-03-23T20:22:11.940Z,16.85
2023-03-23T20:24:40.149Z,16.76
2023-03-23T20:27:08.171Z,16.86
2023-03-23T20:29:36.520Z,16.98
2023-03-23T20:32:04.202Z,17.01
2023-03-23T20:34:32.298Z,17.07
2023-03-23T20:37:02.751Z,17.10
2023-03-23T20:39:33.557Z,17.07
2023-03-23T20:42:04.418Z,17.07
2023-03-23T20:44:35.492Z,16.93
2023-03-23T20:47:04.702Z,16.90
2023-03-23T20:49:34.859Z,16.63
2023-03-23T20:52:04.368Z,16.58
2023-03-23T20:54:32.305Z,16.58
2023-03-23T20:57:01.210Z,16.53
2023-03-23T20:59:29.669Z,16.34
2023-03-23T21:01:57.254Z,16.25
2023-03-23T21:04:27.626Z,16.34
2023-03-23T21:06:56.096Z,16.39
2023-03-23T21:09:25.514Z,16.40
2023-03-23T21:11:54.363Z,16.30
2023-03-23T21:14:22.017Z,16.18
2023-03-23T21:16:50.656Z,16.23
2023-03-23T21:19:20.150Z,16.32
2023-03-23T21:21:56.850Z,16.21
2023-03-23T21:24:29.619Z,15.81
2023-03-23T21:27:00.494Z,15.97
2023-03-23T21:29:29.324Z,15.84
2023-03-23T21:34:29.057Z,15.60
2023-03-23T21:36:57.192Z,15.66
2023-03-23T21:39:24.950Z,15.81
2023-03-23T21:41:53.075Z,15.84
2023-03-23T21:44:21.664Z,15.74
2023-03-23T21:46:52.491Z,15.84
2023-03-23T21:49:20.785Z,15.74
2023-03-23T21:51:49.646Z,15.85
2023-03-23T21:54:17.684Z,15.94
2023-03-23T21:56:45.266Z,16.09
2023-03-23T21:59:13.521Z,16.13
2023-03-23T22:01:41.654Z,16.21
2023-03-23T22:04:28.052Z,16.15
2023-03-23T22:07:15.375Z,16.05
2023-03-23T22:09:45.036Z,15.82
2023-03-23T22:12:13.349Z,15.76
2023-03-23T22:14:41.840Z,15.82
2023-03-23T22:17:09.689Z,15.87
2023-03-23T22:19:39.468Z,16.00
2023-03-23T22:22:07.590Z,16.07
2023-03-23T22:24:36.076Z,16.03
2023-03-23T22:27:04.351Z,15.81
2023-03-23T22:29:32.379Z,15.60
2023-03-23T22:32:00.481Z,15.38
2023-03-23T22:34:28.700Z,15.40
2023-03-23T22:36:57.058Z,15.50
2023-03-23T22:39:25.962Z,15.34
2023-03-23T22:41:53.630Z,15.30
2023-03-23T22:44:21.280Z,15.36
2023-03-23T22:46:49.114Z,15.34
2023-03-23T22:49:17.238Z,15.33
2023-03-23T22:51:45.716Z,15.36
2023-03-23T22:54:13.744Z,15.32
2023-03-23T22:56:41.827Z,15.30
2023-03-23T22:59:11.112Z,15.38
2023-03-23T23:01:39.475Z,15.39
2023-03-23T23:04:07.770Z,15.07
2023-03-23T23:06:35.787Z,15.04
2023-03-23T23:09:03.919Z,15.13
2023-03-23T23:11:31.602Z,15.19
2023-03-23T23:13:59.339Z,15.29
2023-03-23T23:16:29.360Z,15.34
2023-03-23T23:18:57.889Z,15.18
2023-03-23T23:21:26.841Z,15.25
2023-03-23T23:23:55.091Z,15.29
2023-03-23T23:26:23.260Z,15.26
2023-03-23T23:28:51.680Z,15.34
2023-03-23T23:31:29.332Z,15.41
2023-03-23T23:33:59.840Z,15.35
2023-03-23T23:36:30.332Z,15.29
2023-03-23T23:39:00.688Z,15.25
2023-03-23T23:41:30.278Z,15.12
2023-03-23T23:43:58.374Z,14.90
2023-03-23T23:46:26.735Z,14.81
2023-03-23T23:48:54.508Z,14.83
2023-03-23T23:51:27.256Z,14.74
2023-03-23T23:53:59.276Z,14.75
2023-03-23T23:56:28.351Z,14.91
2023-03-23T23:58:57.173Z,14.87
